createdAt,value
2023-05-24T00:00:12.987Z,101669.78
2023-05-24T00:02:16.867Z,101670.56
2023-05-24T00:04:23.089Z,101653.63
2023-05-24T00:06:27.558Z,101672.91
2023-05-24T00:08:31.087Z,101671.81
2023-05-24T00:10:34.644Z,101677.00
2023-05-24T00:12:39.502Z,101675.31
2023-05-24T00:14:43.110Z,101673.34
2023-05-24T00:16:47.003Z,101666.22
2023-05-24T00:18:52.292Z,101668.88
2023-05-24T00:21:00.505Z,101674.19
2023-05-24T00:23:04.095Z,101650.97
2023-05-24T00:25:08.970Z,101667.53
2023-05-24T00:27:13.083Z,101677.72
2023-05-24T00:29:19.644Z,101677.81
2023-05-24T00:31:23.203Z,101675.31
2023-05-24T00:33:27.963Z,101661.88
2023-05-24T00:35:34.121Z,101668.16
2023-05-24T00:37:40.230Z,101658.34
2023-05-24T00:39:43.743Z,101668.06
2023-05-24T00:41:49.962Z,101674.31
2023-05-24T00:43:55.604Z,101660.22
2023-05-24T00:46:18.267Z,101659.19
2023-05-24T00:48:23.976Z,101668.84
2023-05-24T00:50:27.628Z,101675.81
2023-05-24T00:52:31.825Z,101677.59
2023-05-24T00:54:36.808Z,101676.78
2023-05-24T00:56:40.471Z,101653.78
2023-05-24T00:58:46.618Z,101668.94
2023-05-24T01:00:55.161Z,101664.53
2023-05-24T01:03:01.286Z,101656.34
2023-05-24T01:05:05.929Z,101667.81
2023-05-24T01:07:18.200Z,101667.75
2023-05-24T01:09:30.125Z,101671.84
2023-05-24T01:11:46.954Z,101666.63
2023-05-24T01:13:59.865Z,101666.75
2023-05-24T01:16:17.987Z,101660.78
2023-05-24T01:18:30.134Z,101667.13
2023-05-24T01:20:38.536Z,101650.41
2023-05-24T01:23:07.289Z,101660.28
2023-05-24T01:25:15.704Z,101661.69
2023-05-24T01:27:23.830Z,101649.13
2023-05-24T01:29:29.408Z,101657.06
2023-05-24T01:31:36.431Z,101653.53
2023-05-24T01:33:42.938Z,101661.91
2023-05-24T01:35:46.552Z,101652.00
2023-05-24T01:37:50.138Z,101656.41
2023-05-24T01:39:53.999Z,101651.19
2023-05-24T01:42:08.595Z,101641.41
2023-05-24T01:44:24.889Z,101655.75
2023-05-24T01:46:37.495Z,101655.84
2023-05-24T01:48:51.597Z,101648.28
2023-05-24T01:51:00.385Z,101641.22
2023-05-24T01:53:07.700Z,101650.91
2023-05-24T01:55:13.362Z,101624.94
2023-05-24T01:57:18.369Z,101645.78
2023-05-24T01:59:27.065Z,101634.31
2023-05-24T02:01:31.980Z,101636.00
2023-05-24T02:03:37.963Z,101636.88
2023-05-24T02:05:41.482Z,101640.25
2023-05-24T02:07:44.960Z,101647.22
2023-05-24T02:09:48.513Z,101644.66
2023-05-24T02:11:51.995Z,101640.34
2023-05-24T02:13:55.750Z,101634.88
2023-05-24T02:16:00.596Z,101639.25
2023-05-24T02:18:04.270Z,101633.78
2023-05-24T02:20:09.091Z,101639.84
2023-05-24T02:22:13.471Z,101649.50
2023-05-24T02:24:18.563Z,101651.28
2023-05-24T02:26:22.089Z,101636.22
2023-05-24T02:28:25.619Z,101627.44
2023-05-24T02:30:29.273Z,101597.16
2023-05-24T02:32:35.021Z,101643.44
2023-05-24T02:34:38.964Z,101648.59
2023-05-24T02:36:42.648Z,101639.03
2023-05-24T02:38:46.644Z,101638.16
2023-05-24T02:40:50.645Z,101629.25
2023-05-24T02:42:54.121Z,101627.31
2023-05-24T02:44:58.081Z,101629.97
2023-05-24T02:47:01.514Z,101620.13
2023-05-24T02:49:06.481Z,101635.19
2023-05-24T02:51:09.872Z,101626.25
2023-05-24T02:53:13.656Z,101633.03
2023-05-24T02:55:17.307Z,101633.72
2023-05-24T02:57:20.749Z,101626.63
2023-05-24T02:59:24.606Z,101623.91
2023-05-24T03:01:28.242Z,101626.63
2023-05-24T03:03:34.288Z,101616.84
2023-05-24T03:05:39.542Z,101631.84
2023-05-24T03:07:43.060Z,101634.22
2023-05-24T03:09:46.646Z,101610.50
2023-05-24T03:11:50.114Z,101583.47
2023-05-24T03:13:53.810Z,101578.91
2023-05-24T03:15:57.430Z,101623.41
2023-05-24T03:18:01.005Z,101632.38
2023-05-24T03:20:07.079Z,101631.97
2023-05-24T03:22:12.026Z,101618.66
2023-05-24T03:24:15.561Z,101625.63
2023-05-24T03:26:20.595Z,101615.88
2023-05-24T03:28:24.424Z,101618.31
2023-05-24T03:30:28.008Z,101622.72
2023-05-24T03:32:33.948Z,101611.44
2023-05-24T03:34:37.408Z,101612.19
2023-05-24T03:36:40.801Z,101622.16
2023-05-24T03:38:45.589Z,101620.25
2023-05-24T03:40:49.440Z,101614.09
2023-05-24T03:42:54.501Z,101626.53
2023-05-24T03:45:08.846Z,101631.81
2023-05-24T03:47:13.786Z,101627.50
2023-05-24T03:49:17.548Z,101617.53
2023-05-24T03:51:23.761Z,101615.53
2023-05-24T03:53:27.183Z,101616.16
2023-05-24T03:55:32.792Z,101624.00
2023-05-24T03:57:36.443Z,101626.44
2023-05-24T03:59:41.336Z,101632.38
2023-05-24T04:01:44.965Z,101621.56
2023-05-24T04:03:48.585Z,101642.75
2023-05-24T04:05:52.150Z,101640.78
2023-05-24T04:07:55.684Z,101635.53
2023-05-24T04:09:59.319Z,101456.13
2023-05-24T04:12:04.915Z,101636.13
2023-05-24T04:14:08.831Z,101606.97
2023-05-24T04:16:14.051Z,101650.66
2023-05-24T04:18:17.588Z,101650.88
2023-05-24T04:20:27.819Z,101653.75
2023-05-24T04:22:31.544Z,101649.09
2023-05-24T04:24:37.287Z,101641.56
2023-05-24T04:26:40.705Z,101653.34
2023-05-24T04:28:46.789Z,101657.44
2023-05-24T04:30:52.404Z,101618.91
2023-05-24T04:32:56.329Z,101662.00
2023-05-24T04:35:00.001Z,101659.13
2023-05-24T04:37:04.100Z,101662.34
2023-05-24T04:39:07.453Z,101659.50
2023-05-24T04:41:11.403Z,101513.19
2023-05-24T04:43:14.848Z,101658.34
2023-05-24T04:45:19.689Z,101655.94
2023-05-24T04:47:23.254Z,101671.63
2023-05-24T04:49:27.122Z,101636.94
2023-05-24T04:51:30.929Z,101662.66
2023-05-24T04:53:34.560Z,101662.38
2023-05-24T04:55:38.231Z,101671.19
2023-05-24T04:57:41.890Z,101653.22
2023-05-24T04:59:45.585Z,101669.63
2023-05-24T05:01:50.856Z,101692.63
2023-05-24T05:03:54.474Z,101685.78
2023-05-24T05:05:57.900Z,101684.03
2023-05-24T05:08:01.505Z,101687.84
2023-05-24T05:10:05.574Z,101693.03
2023-05-24T05:12:09.312Z,101699.22
2023-05-24T05:14:12.852Z,101687.22
2023-05-24T05:16:16.305Z,101702.38
2023-05-24T05:18:21.259Z,101702.81
2023-05-24T05:20:26.027Z,101666.44
2023-05-24T05:22:31.203Z,101708.09
2023-05-24T05:24:34.746Z,101712.25
2023-05-24T05:26:38.192Z,101575.94
2023-05-24T05:28:41.555Z,101708.31
2023-05-24T05:30:44.989Z,101712.75
2023-05-24T05:32:48.837Z,101707.56
2023-05-24T05:34:54.019Z,101715.28
2023-05-24T05:36:57.450Z,101692.34
2023-05-24T05:39:00.894Z,101704.19
2023-05-24T05:41:04.256Z,101693.13
2023-05-24T05:43:08.516Z,101703.63
2023-05-24T05:45:12.881Z,101703.81
2023-05-24T05:47:16.370Z,101689.84
2023-05-24T05:49:20.093Z,101682.28
2023-05-24T05:51:24.854Z,101688.53
2023-05-24T05:53:31.009Z,101691.38
2023-05-24T05:55:34.740Z,101693.16
2023-05-24T05:57:38.113Z,101691.84
2023-05-24T05:59:41.652Z,101700.66
2023-05-24T06:01:47.447Z,101687.03
2023-05-24T06:03:52.404Z,101652.59
2023-05-24T06:05:56.064Z,101694.94
2023-05-24T06:08:00.770Z,101687.47
2023-05-24T06:10:04.520Z,101691.84
2023-05-24T06:12:08.129Z,101698.53
2023-05-24T06:14:12.097Z,101682.66
2023-05-24T06:16:16.064Z,101679.94
2023-05-24T06:18:19.488Z,101682.94
2023-05-24T06:20:25.994Z,101675.09
2023-05-24T06:22:29.871Z,101683.16
2023-05-24T06:24:35.342Z,101686.59
2023-05-24T06:26:38.807Z,101676.44
2023-05-24T06:28:42.202Z,101678.78
2023-05-24T06:30:45.907Z,101680.69
2023-05-24T06:32:50.326Z,101689.09
2023-05-24T06:34:53.738Z,101677.63
2023-05-24T06:36:58.239Z,101673.63
2023-05-24T06:39:02.023Z,101691.81
2023-05-24T06:41:08.813Z,101689.91
2023-05-24T06:43:12.500Z,101696.03
2023-05-24T06:45:17.487Z,101703.44
2023-05-24T06:47:22.566Z,101690.72
2023-05-24T06:49:27.141Z,101702.91
2023-05-24T06:51:30.575Z,101715.56
2023-05-24T06:53:34.154Z,101719.00
2023-05-24T06:55:37.613Z,101715.38
2023-05-24T06:57:44.550Z,101710.97
2023-05-24T06:59:48.212Z,101704.63
2023-05-24T07:01:58.425Z,101706.53
2023-05-24T07:04:03.489Z,101704.50
2023-05-24T07:06:10.001Z,101705.19
2023-05-24T07:08:13.733Z,101697.41
2023-05-24T07:10:17.306Z,101702.00
2023-05-24T07:12:20.999Z,101712.47
2023-05-24T07:14:26.121Z,101704.63
2023-05-24T07:16:29.812Z,101711.94
2023-05-24T07:18:33.598Z,101704.88
2023-05-24T07:20:40.178Z,101709.84
2023-05-24T07:22:44.081Z,101701.81
2023-05-24T07:24:47.474Z,101709.97
2023-05-24T07:26:51.094Z,101711.88
2023-05-24T07:28:54.500Z,101717.56
2023-05-24T07:30:59.319Z,101726.25
2023-05-24T07:33:03.237Z,101728.41
2023-05-24T07:35:07.811Z,101731.13
2023-05-24T07:37:11.886Z,101722.13
2023-05-24T07:39:16.694Z,101725.31
2023-05-24T07:41:20.700Z,101744.88
2023-05-24T07:43:24.078Z,101725.47
2023-05-24T07:45:27.487Z,101726.06
2023-05-24T07:47:32.782Z,101679.94
2023-05-24T07:49:36.267Z,101727.34
2023-05-24T07:51:39.976Z,101724.38
2023-05-24T07:53:43.420Z,101715.91
2023-05-24T07:55:47.627Z,101724.84
2023-05-24T07:57:51.003Z,101718.22
2023-05-24T07:59:54.337Z,101719.56
2023-05-24T08:02:01.581Z,101684.31
2023-05-24T08:04:08.777Z,101718.38
2023-05-24T08:06:13.510Z,101727.22
2023-05-24T08:08:16.899Z,101718.88
2023-05-24T08:10:20.676Z,101714.78
2023-05-24T08:12:25.900Z,101723.66
2023-05-24T08:14:29.403Z,101721.16
2023-05-24T08:16:33.041Z,101719.38
2023-05-24T08:18:36.470Z,101731.50
2023-05-24T08:20:41.545Z,101724.56
2023-05-24T08:22:45.227Z,101727.81
2023-05-24T08:24:48.570Z,101732.44
2023-05-24T08:26:52.836Z,101726.19
2023-05-24T08:28:56.706Z,101710.38
2023-05-24T08:31:00.174Z,101725.00
2023-05-24T08:33:03.667Z,101724.19
2023-05-24T08:35:19.460Z,101726.16
2023-05-24T08:37:25.726Z,101728.09
2023-05-24T08:39:29.128Z,101747.78
2023-05-24T08:41:37.368Z,101696.28
2023-05-24T08:43:40.746Z,101732.69
2023-05-24T08:45:45.367Z,101729.44
2023-05-24T08:47:51.424Z,101723.38
2023-05-24T08:49:55.711Z,101728.81
2023-05-24T08:51:59.216Z,101719.28
2023-05-24T08:54:06.653Z,101725.72
2023-05-24T08:56:10.401Z,101708.34
2023-05-24T08:58:14.600Z,101718.19
2023-05-24T09:00:19.422Z,101711.88
2023-05-24T09:02:24.353Z,101714.31
2023-05-24T09:04:29.131Z,101720.69
2023-05-24T09:06:32.631Z,101710.53
2023-05-24T09:08:38.513Z,101688.59
2023-05-24T09:10:54.173Z,101714.44
2023-05-24T09:12:59.476Z,101712.88
2023-05-24T09:15:03.517Z,101647.09
2023-05-24T09:17:06.999Z,101713.25
2023-05-24T09:19:10.808Z,101714.16
2023-05-24T09:21:14.500Z,101709.16
2023-05-24T09:23:18.660Z,101708.31
2023-05-24T09:25:22.558Z,101713.50
2023-05-24T09:27:27.820Z,101702.38
2023-05-24T09:29:31.226Z,101706.28
2023-05-24T09:31:35.372Z,101708.28
2023-05-24T09:33:40.741Z,101697.97
2023-05-24T09:35:44.728Z,101698.09
2023-05-24T09:37:48.340Z,101701.53
2023-05-24T09:39:51.914Z,101710.34
2023-05-24T09:41:57.335Z,101704.06
2023-05-24T09:44:03.302Z,101705.81
2023-05-24T09:46:06.804Z,101700.38
2023-05-24T09:48:12.516Z,101703.91
2023-05-24T09:50:18.434Z,101713.25
2023-05-24T09:52:23.622Z,101712.53
2023-05-24T09:54:27.589Z,101705.94
2023-05-24T09:56:31.122Z,101680.44
2023-05-24T09:58:35.152Z,101680.50
2023-05-24T10:00:42.294Z,101691.47
2023-05-24T10:02:53.385Z,101683.06
2023-05-24T10:05:01.174Z,101688.53
2023-05-24T10:07:05.733Z,101611.50
2023-05-24T10:09:09.913Z,101681.72
2023-05-24T10:11:13.374Z,101680.03
2023-05-24T10:13:18.506Z,101681.00
2023-05-24T10:15:21.989Z,101675.00
2023-05-24T10:17:28.008Z,101664.47
2023-05-24T10:19:31.514Z,101680.13
2023-05-24T10:21:38.843Z,101687.16
2023-05-24T10:23:45.461Z,101685.56
2023-05-24T10:25:53.829Z,101680.50
2023-05-24T10:28:13.969Z,101688.53
2023-05-24T10:30:27.064Z,101693.84
2023-05-24T10:32:35.870Z,101683.22
2023-05-24T10:34:40.220Z,101697.03
2023-05-24T10:36:45.954Z,101691.84
2023-05-24T10:38:49.704Z,101695.09
2023-05-24T10:40:53.272Z,101665.56
2023-05-24T10:42:56.999Z,101693.38
2023-05-24T10:45:00.466Z,101693.16
2023-05-24T10:47:11.075Z,101694.34
2023-05-24T10:49:16.957Z,101694.59
2023-05-24T10:51:33.435Z,101690.44
2023-05-24T10:53:40.431Z,101657.72
2023-05-24T10:55:54.849Z,101687.03
2023-05-24T10:57:58.474Z,101686.78
2023-05-24T11:02:36.594Z,101687.03
2023-05-24T11:04:44.032Z,101685.69
2023-05-24T11:06:49.540Z,101653.19
2023-05-24T11:08:53.820Z,101687.31
2023-05-24T11:11:22.307Z,101674.31
2023-05-24T11:13:28.568Z,101639.38
2023-05-24T11:15:32.044Z,101683.63
2023-05-24T11:18:13.855Z,101690.53
2023-05-24T11:20:18.876Z,101681.56
2023-05-24T11:22:23.555Z,101678.72
2023-05-24T11:24:28.889Z,101681.97
2023-05-24T11:26:32.463Z,101679.44
2023-05-24T11:28:38.020Z,101603.97
2023-05-24T11:30:41.843Z,101677.34
2023-05-24T11:32:49.700Z,101673.44
2023-05-24T11:34:53.135Z,101642.03
2023-05-24T11:36:59.033Z,101672.22
2023-05-24T11:39:03.624Z,101670.34
2023-05-24T11:41:07.559Z,101667.84
2023-05-24T11:43:15.174Z,101673.84
2023-05-24T11:45:20.748Z,101663.91
2023-05-24T11:47:25.005Z,101662.88
2023-05-24T11:49:29.616Z,101662.03
2023-05-24T11:51:34.092Z,101668.97
2023-05-24T11:53:39.404Z,101657.56
2023-05-24T11:55:43.541Z,101663.00
2023-05-24T11:57:52.961Z,101662.25
2023-05-24T11:59:58.078Z,101662.44
2023-05-24T12:02:02.689Z,101662.44
2023-05-24T12:04:09.614Z,101662.31
2023-05-24T12:06:13.128Z,101664.00
2023-05-24T12:08:16.676Z,101642.38
2023-05-24T12:10:23.073Z,101665.47
2023-05-24T12:12:33.794Z,101673.28
2023-05-24T12:14:39.252Z,101669.81
2023-05-24T12:16:43.734Z,101667.38
2023-05-24T12:19:02.370Z,101672.78
2023-05-24T12:21:11.725Z,101666.88
2023-05-24T12:23:15.668Z,101667.91
2023-05-24T12:25:21.407Z,101658.66
2023-05-24T12:27:30.734Z,101658.50
2023-05-24T12:29:35.702Z,101661.97
2023-05-24T12:31:40.524Z,101657.72
2023-05-24T12:33:43.999Z,101660.69
2023-05-24T12:35:49.933Z,101660.19
2023-05-24T12:38:01.034Z,101586.25
2023-05-24T12:40:05.415Z,101649.59
2023-05-24T12:42:08.935Z,101652.44
2023-05-24T12:44:13.889Z,101659.00
2023-05-24T12:46:17.253Z,101663.16
2023-05-24T12:48:21.340Z,101670.75
2023-05-24T12:50:26.472Z,101665.22
2023-05-24T12:52:29.873Z,101661.81
2023-05-24T12:54:33.438Z,101664.31
2023-05-24T12:56:36.882Z,101666.25
2023-05-24T12:58:41.304Z,101660.78
2023-05-24T13:00:50.099Z,101650.25
2023-05-24T13:02:56.249Z,101608.50
2023-05-24T13:04:59.800Z,101657.97
2023-05-24T13:07:03.980Z,101665.97
2023-05-24T13:09:07.771Z,101661.53
2023-05-24T13:11:11.225Z,101645.59
2023-05-24T13:13:14.662Z,101660.56
2023-05-24T13:15:19.399Z,101663.88
2023-05-24T13:17:24.162Z,101655.75
2023-05-24T13:19:27.644Z,101657.59
2023-05-24T13:21:31.033Z,101638.44
2023-05-24T13:23:36.054Z,101646.72
2023-05-24T13:25:39.530Z,101660.69
2023-05-24T13:27:42.893Z,101645.72
2023-05-24T13:29:59.856Z,101654.88
2023-05-24T13:32:04.561Z,101653.38
2023-05-24T13:34:10.825Z,101653.38
2023-05-24T13:36:14.810Z,101653.50
2023-05-24T13:38:18.423Z,101653.69
2023-05-24T13:40:22.001Z,101651.16
2023-05-24T13:42:25.571Z,101672.41
2023-05-24T13:44:29.489Z,101643.44
2023-05-24T13:46:34.209Z,101652.97
2023-05-24T13:48:37.918Z,101655.63
2023-05-24T13:50:43.054Z,101637.94
2023-05-24T13:52:46.624Z,101644.75
2023-05-24T13:54:51.173Z,101650.78
2023-05-24T13:56:57.314Z,101654.88
2023-05-24T13:59:01.066Z,101648.38
2023-05-24T14:01:04.449Z,101650.94
2023-05-24T14:03:08.040Z,101644.69
2023-05-24T14:05:25.860Z,101642.72
2023-05-24T14:07:31.949Z,101643.56
2023-05-24T14:09:35.503Z,101640.94
2023-05-24T14:11:38.946Z,101644.56
2023-05-24T14:14:43.133Z,101626.91
2023-05-24T14:16:06.945Z,101643.91
2023-05-24T14:18:10.531Z,101644.13
2023-05-24T14:20:14.037Z,101647.97
2023-05-24T14:22:17.497Z,101645.38
2023-05-24T14:24:22.275Z,101653.78
2023-05-24T14:26:25.745Z,101647.19
2023-05-24T14:28:29.147Z,101649.28
2023-05-24T14:30:33.254Z,101651.19
2023-05-24T14:32:36.794Z,101645.66
2023-05-24T14:34:40.300Z,101613.91
2023-05-24T14:36:45.389Z,101646.69
2023-05-24T14:38:48.753Z,101634.63
2023-05-24T14:40:53.507Z,101637.72
2023-05-24T14:42:57.008Z,101649.38
2023-05-24T14:45:00.449Z,101645.00
2023-05-24T14:47:03.899Z,101646.94
2023-05-24T14:49:08.387Z,101635.44
2023-05-24T14:51:11.833Z,101642.50
2023-05-24T14:53:15.308Z,101626.47
2023-05-24T14:55:18.678Z,101641.41
2023-05-24T14:57:23.510Z,101535.31
2023-05-24T14:59:26.883Z,101639.84
2023-05-24T15:01:30.846Z,101638.06
2023-05-24T15:03:34.416Z,101630.75
2023-05-24T15:05:38.156Z,101563.38
2023-05-24T15:07:42.141Z,101635.88
2023-05-24T15:09:45.701Z,101618.81
2023-05-24T15:11:49.285Z,101631.06
2023-05-24T15:13:58.589Z,101638.09
2023-05-24T15:16:02.389Z,101643.66
2023-05-24T15:18:06.576Z,101634.06
2023-05-24T15:20:10.903Z,101640.25
2023-05-24T15:22:14.349Z,101629.50
2023-05-24T15:24:17.740Z,101633.06
2023-05-24T15:26:21.142Z,101638.44
2023-05-24T15:28:26.414Z,101639.94
2023-05-24T15:30:31.808Z,101638.66
2023-05-24T15:32:35.194Z,101634.19
2023-05-24T15:34:38.525Z,101631.63
2023-05-24T15:36:42.102Z,101582.31
2023-05-24T15:38:45.450Z,101639.19
2023-05-24T15:40:49.008Z,101644.50
2023-05-24T15:42:52.751Z,101641.69
2023-05-24T15:44:56.180Z,101627.50
2023-05-24T15:47:01.186Z,101634.59
2023-05-24T15:49:05.221Z,101632.84
2023-05-24T15:53:15.380Z,101638.91
2023-05-24T15:55:19.070Z,101621.28
2023-05-24T15:57:22.410Z,101629.31
2023-05-24T15:59:25.827Z,101634.63
2023-05-24T16:01:29.296Z,101630.06
2023-05-24T16:03:34.140Z,101618.47
2023-05-24T16:05:37.872Z,101631.56
2023-05-24T16:07:41.434Z,101626.03
2023-05-24T16:09:46.752Z,101631.19
2023-05-24T16:11:50.337Z,101631.22
2023-05-24T16:13:54.311Z,101636.44
2023-05-24T16:15:57.639Z,101598.38
2023-05-24T16:18:01.151Z,101623.16
2023-05-24T16:20:06.646Z,101618.72
2023-05-24T16:22:10.162Z,101619.63
2023-05-24T16:24:13.501Z,101614.34
2023-05-24T16:26:16.949Z,101613.44
2023-05-24T16:28:23.941Z,101615.16
2023-05-24T16:30:27.557Z,101562.06
2023-05-24T16:32:30.954Z,101618.81
2023-05-24T16:34:44.777Z,101616.13
2023-05-24T16:36:59.301Z,101615.09
2023-05-24T16:39:02.711Z,101614.84
2023-05-24T16:41:06.227Z,101613.97
2023-05-24T16:43:09.646Z,101613.84
2023-05-24T16:45:12.963Z,101611.09
2023-05-24T16:47:16.369Z,101604.03
2023-05-24T16:49:19.896Z,101612.88
2023-05-24T16:51:23.257Z,101614.63
2023-05-24T16:53:28.739Z,101611.84
2023-05-24T16:55:32.256Z,101619.81
2023-05-24T16:57:36.600Z,101619.00
2023-05-24T16:59:42.169Z,101581.56
2023-05-24T17:01:47.159Z,101618.50
2023-05-24T17:03:50.665Z,101615.09
2023-05-24T17:05:54.253Z,101488.53
2023-05-24T17:07:57.678Z,101621.53
2023-05-24T17:10:02.425Z,101614.53
2023-05-24T17:12:06.212Z,101617.25
2023-05-24T17:14:09.632Z,101615.50
2023-05-24T17:16:13.973Z,101615.56
2023-05-24T17:18:17.417Z,101615.66
2023-05-24T17:20:21.020Z,101617.44
2023-05-24T17:22:24.528Z,101617.50
2023-05-24T17:24:28.005Z,101620.22
2023-05-24T17:26:32.831Z,101613.28
2023-05-24T17:28:36.807Z,101512.31
2023-05-24T17:30:40.278Z,101623.09
2023-05-24T17:32:43.673Z,101610.78
2023-05-24T17:34:47.091Z,101608.19
2023-05-24T17:36:50.456Z,101603.75
2023-05-24T17:38:53.751Z,101611.56
2023-05-24T17:40:59.215Z,101614.06
2023-05-24T17:43:04.545Z,101618.53
2023-05-24T17:45:09.340Z,101550.53
2023-05-24T17:47:13.618Z,101614.38
2023-05-24T17:49:17.186Z,101609.16
2023-05-24T17:51:20.833Z,101610.13
2023-05-24T17:55:33.609Z,101618.94
2023-05-24T17:57:37.110Z,101614.56
2023-05-24T17:59:41.885Z,101615.31
2023-05-24T18:01:46.871Z,101603.44
2023-05-24T18:03:50.368Z,101618.34
2023-05-24T18:05:53.703Z,101617.53
2023-05-24T18:07:57.125Z,101618.38
2023-05-24T18:10:01.275Z,101617.53
2023-05-24T18:12:05.644Z,101614.06
2023-05-24T18:14:09.046Z,101612.22
2023-05-24T18:16:14.688Z,101614.00
2023-05-24T18:18:18.361Z,101611.28
2023-05-24T18:20:23.112Z,101620.97
2023-05-24T18:22:26.826Z,101624.44
2023-05-24T18:24:30.171Z,101626.16
2023-05-24T18:26:33.648Z,101617.44
2023-05-24T18:28:38.276Z,101621.00
2023-05-24T18:30:43.212Z,101625.38
2023-05-24T18:33:03.142Z,101622.69
2023-05-24T18:35:09.741Z,101622.78
2023-05-24T18:37:13.189Z,101622.84
2023-05-24T18:39:17.188Z,101590.16
2023-05-24T18:41:21.051Z,101629.97
2023-05-24T18:43:24.459Z,101626.53
2023-05-24T18:45:27.916Z,101637.09
2023-05-24T18:47:32.167Z,101637.94
2023-05-24T18:49:37.112Z,101586.50
2023-05-24T18:51:40.595Z,101637.75
2023-05-24T18:53:43.963Z,101635.03
2023-05-24T18:55:47.960Z,101642.06
2023-05-24T18:57:51.406Z,101639.41
2023-05-24T18:59:55.115Z,101649.03
2023-05-24T19:01:59.146Z,101648.16
2023-05-24T19:04:02.675Z,101601.97
2023-05-24T19:06:07.685Z,101649.78
2023-05-24T19:08:11.160Z,101655.03
2023-05-24T19:10:14.622Z,101648.00
2023-05-24T19:12:17.999Z,101649.66
2023-05-24T19:14:22.102Z,101661.03
2023-05-24T19:16:25.552Z,101660.06
2023-05-24T19:18:29.068Z,101659.06
2023-05-24T19:20:32.553Z,101673.09
2023-05-24T19:22:37.395Z,101659.91
2023-05-24T19:24:40.917Z,101664.19
2023-05-24T19:26:44.268Z,101661.53
2023-05-24T19:28:50.481Z,101669.47
2023-05-24T19:30:53.877Z,101664.38
2023-05-24T19:32:57.299Z,101659.16
2023-05-24T19:35:00.976Z,101661.94
2023-05-24T19:37:04.398Z,101669.94
2023-05-24T19:39:09.169Z,101671.91
2023-05-24T19:41:12.684Z,101668.59
2023-05-24T19:43:16.073Z,101674.97
2023-05-24T19:45:19.538Z,101568.06
2023-05-24T19:47:23.150Z,101674.78
2023-05-24T19:49:26.554Z,101679.47
2023-05-24T19:51:29.890Z,101673.47
2023-05-24T19:53:33.299Z,101680.66
2023-05-24T19:55:38.044Z,101685.25
2023-05-24T19:57:41.659Z,101695.81
2023-05-24T19:59:45.062Z,101693.13
2023-05-24T20:01:48.472Z,101691.22
2023-05-24T20:03:51.907Z,101689.31
2023-05-24T20:05:55.453Z,101692.72
2023-05-24T20:07:58.837Z,101694.34
2023-05-24T20:10:05.035Z,101694.13
2023-05-24T20:12:10.944Z,101692.06
2023-05-24T20:14:14.419Z,101698.84
2023-05-24T20:16:17.944Z,101704.78
2023-05-24T20:18:21.520Z,101699.34
2023-05-24T20:20:25.758Z,101587.31
2023-05-24T20:22:29.290Z,101710.44
2023-05-24T20:24:32.624Z,101706.81
2023-05-24T20:26:36.949Z,101710.19
2023-05-24T20:28:41.743Z,101712.59
2023-05-24T20:30:45.871Z,101717.72
2023-05-24T20:32:49.331Z,101718.38
2023-05-24T20:34:52.714Z,101714.69
2023-05-24T20:36:56.227Z,101714.44
2023-05-24T20:38:59.636Z,101713.47
2023-05-24T20:41:04.268Z,101717.63
2023-05-24T20:43:08.495Z,101725.28
2023-05-24T20:45:13.570Z,101718.00
2023-05-24T20:47:19.032Z,101713.63
2023-05-24T20:49:22.525Z,101714.47
2023-05-24T20:51:26.178Z,101707.25
2023-05-24T20:53:29.565Z,101716.06
2023-05-24T20:55:33.039Z,101709.00
2023-05-24T20:57:36.400Z,101711.53
2023-05-24T20:59:39.812Z,101714.16
2023-05-24T21:01:44.558Z,101715.03
2023-05-24T21:03:47.989Z,101713.13
2023-05-24T21:05:51.501Z,101715.59
2023-05-24T21:07:54.957Z,101716.22
2023-05-24T21:09:58.525Z,101717.13
2023-05-24T21:12:02.538Z,101714.47
2023-05-24T21:14:06.080Z,101717.97
2023-05-24T21:16:09.550Z,101719.63
2023-05-24T21:18:14.343Z,101716.03
2023-05-24T21:20:17.925Z,101722.00
2023-05-24T21:22:21.590Z,101718.28
2023-05-24T21:24:25.046Z,101726.19
2023-05-24T21:26:28.514Z,101663.84
2023-05-24T21:28:31.942Z,101738.28
2023-05-24T21:30:35.502Z,101739.03
2023-05-24T21:32:39.047Z,101731.06
2023-05-24T21:34:43.871Z,101738.06
2023-05-24T21:36:47.310Z,101698.91
2023-05-24T21:38:51.142Z,101737.84
2023-05-24T21:40:54.623Z,101734.19
2023-05-24T21:42:57.949Z,101730.94
2023-05-24T21:45:01.440Z,101735.53
2023-05-24T21:47:05.168Z,101736.69
2023-05-24T21:49:09.049Z,101736.56
2023-05-24T21:51:15.513Z,101735.81
2023-05-24T21:53:19.006Z,101735.22
2023-05-24T21:55:22.476Z,101733.50
2023-05-24T21:57:26.550Z,101736.06
2023-05-24T21:59:30.137Z,101736.94
2023-05-24T22:01:33.690Z,101717.03
2023-05-24T22:03:38.534Z,101742.63
2023-05-24T22:05:41.982Z,101739.03
2023-05-24T22:07:46.846Z,101737.16
2023-05-24T22:09:50.506Z,101744.22
2023-05-24T22:11:54.030Z,101720.22
2023-05-24T22:13:57.489Z,101744.44
2023-05-24T22:16:00.982Z,101740.81
2023-05-24T22:18:04.644Z,101743.22
2023-05-24T22:20:09.221Z,101753.56
2023-05-24T22:22:12.630Z,101745.44
2023-05-24T22:24:17.476Z,101741.81
2023-05-24T22:26:21.021Z,101745.59
2023-05-24T22:28:24.900Z,101740.50
2023-05-24T22:30:30.032Z,101758.81
2023-05-24T22:32:33.398Z,101747.41
2023-05-24T22:34:36.762Z,101699.25
2023-05-24T22:36:40.172Z,101755.19
2023-05-24T22:38:43.998Z,101725.16
2023-05-24T22:40:48.763Z,101744.66
2023-05-24T22:42:52.196Z,101748.06
2023-05-24T22:44:55.555Z,101710.16
2023-05-24T22:47:01.914Z,101743.53
2023-05-24T22:49:06.502Z,101744.28
2023-05-24T22:51:12.046Z,101743.56
2023-05-24T22:53:17.149Z,101735.84
2023-05-24T22:55:20.569Z,101742.09
2023-05-24T22:57:25.286Z,101740.47
2023-05-24T22:59:31.133Z,101720.56
2023-05-24T23:01:36.225Z,101737.69
2023-05-24T23:03:39.768Z,101742.56
2023-05-24T23:05:43.467Z,101743.44
2023-05-24T23:07:48.501Z,101738.31
2023-05-24T23:09:51.814Z,101743.75
2023-05-24T23:11:58.114Z,101733.09
2023-05-24T23:14:03.138Z,101746.44
2023-05-24T23:16:07.134Z,101744.72
2023-05-24T23:18:16.250Z,101747.19
2023-05-24T23:20:19.786Z,101745.19
2023-05-24T23:22:26.264Z,101740.91
2023-05-24T23:24:30.288Z,101697.09
2023-05-24T23:26:33.612Z,101752.31
2023-05-24T23:28:36.946Z,101755.56
2023-05-24T23:30:41.736Z,101762.94
2023-05-24T23:32:45.144Z,101759.47
2023-05-24T23:34:48.473Z,101760.56
2023-05-24T23:36:51.869Z,101759.00
2023-05-24T23:38:55.220Z,101753.75
2023-05-24T23:40:58.753Z,101760.84
2023-05-24T23:43:02.124Z,101765.19
2023-05-24T23:45:06.449Z,101759.19
2023-05-24T23:47:11.504Z,101759.28
2023-05-24T23:49:14.982Z,101755.66
2023-05-24T23:51:19.474Z,101749.44